Time;durP1;ratioP1;P1;durP2;ratioP2;P2;SDS_P1;SDS_P2;PMS_P1;PMS_P2;Temp;Humidity;BMP_temperature;BMP_pressure;BME280_temperature;BME280_humidity;BME280_pressure;Samples;Min_cycle;Max_cycle;Signal;HPM_P1;HPM_P2
2023/09/03 04:32:13;;;;;;;0.00;0.00;;;19.30;85.40;;;;;;5082516;23;20114;-80
2023/09/03 04:34:39;;;;;;;0.00;0.00;;;19.20;85.30;;;;;;4950584;28;20501;-78
2023/09/03 04:37:04;;;;;;;0.00;0.00;;;19.30;85.40;;;;;;4963480;28;20232;-78
2023/09/03 04:39:30;;;;;;;0.00;0.00;;;19.20;85.30;;;;;;4955898;29;20106;-78
2023/09/03 04:41:56;;;;;;;0.00;0.00;;;19.20;85.30;;;;;;4971198;28;20840;-78
2023/09/03 04:44:22;;;;;;;0.00;0.00;;;19.20;85.40;;;;;;4959158;28;20105;-79
2023/09/03 04:46:48;;;;;;;0.00;0.00;;;19.20;85.40;;;;;;4965877;28;20103;-78
2023/09/03 04:49:13;;;;;;;0.00;0.00;;;19.20;85.40;;;;;;4956355;28;20041;-78
2023/09/03 04:51:39;;;;;;;0.00;0.00;;;19.20;85.40;;;;;;4962463;28;20128;-78
2023/09/03 04:54:04;;;;;;;0.10;0.10;;;19.20;85.40;;;;;;4963891;28;20059;-78
2023/09/03 04:56:30;;;;;;;0.00;0.00;;;19.20;85.50;;;;;;4924328;29;20027;-78
2023/09/03 04:58:56;;;;;;;0.00;0.00;;;19.20;85.40;;;;;;4940293;29;20027;-78
2023/09/03 05:01:21;;;;;;;0.00;0.00;;;19.20;85.60;;;;;;4947147;29;20027;-80
2023/09/03 05:03:47;;;;;;;0.00;0.00;;;19.20;85.60;;;;;;4960508;29;20042;-80
2023/09/03 05:06:15;;;;;;;0.03;0.03;;;19.20;85.60;;;;;;4960808;28;20082;-80
2023/09/03 05:08:41;;;;;;;0.00;0.00;;;19.10;85.70;;;;;;4979739;28;20043;-80
2023/09/03 05:11:12;;;;;;;0.00;0.00;;;19.20;85.60;;;;;;4979585;28;20562;-80
2023/09/03 05:13:39;;;;;;;0.00;0.00;;;19.10;85.80;;;;;;4979634;28;20041;-80
2023/09/03 05:16:04;;;;;;;0.00;0.00;;;19.10;85.80;;;;;;4951840;28;20026;-80
2023/09/03 05:18:32;;;;;;;0.00;0.00;;;19.10;85.70;;;;;;4941221;29;20031;-80
2023/09/03 05:20:57;;;;;;;0.10;0.03;;;19.10;85.80;;;;;;4924052;29;20537;-80
2023/09/03 05:23:23;;;;;;;0.00;0.00;;;19.10;85.90;;;;;;4924441;29;20035;-80
2023/09/03 05:25:48;;;;;;;0.00;0.00;;;19.00;86.00;;;;;;4956208;29;20031;-80
2023/09/03 05:28:14;;;;;;;0.00;0.00;;;19.00;86.10;;;;;;4958460;29;20082;-80
2023/09/03 05:30:40;;;;;;;0.00;0.00;;;19.00;86.10;;;;;;4940603;29;20502;-80
2023/09/03 05:33:05;;;;;;;0.00;0.00;;;19.10;86.00;;;;;;4945516;29;20075;-80
2023/09/03 05:35:31;;;;;;;0.00;0.00;;;19.10;86.00;;;;;;4940736;29;20107;-80
2023/09/03 05:37:57;;;;;;;0.00;0.00;;;19.10;85.90;;;;;;4940682;29;20042;-80
2023/09/03 05:40:22;;;;;;;0.00;0.00;;;19.10;86.00;;;;;;4948281;28;20031;-80
2023/09/03 05:42:48;;;;;;;0.00;0.00;;;19.10;86.10;;;;;;4979037;28;20408;-80
2023/09/03 05:45:14;;;;;;;0.00;0.00;;;19.10;86.00;;;;;;4975894;28;20046;-80
2023/09/03 05:47:39;;;;;;;0.03;0.03;;;19.10;86.10;;;;;;4940303;29;20445;-80
2023/09/03 05:50:06;;;;;;;0.00;0.00;;;19.10;86.10;;;;;;4940290;29;20701;-80
2023/09/03 05:52:31;;;;;;;0.00;0.00;;;19.10;86.20;;;;;;4940456;29;20020;-80
2023/09/03 05:54:57;;;;;;;0.00;0.00;;;19.10;86.20;;;;;;4936626;29;20034;-80
2023/09/03 05:57:23;;;;;;;0.10;0.10;;;19.10;86.20;;;;;;4957994;28;20066;-81
2023/09/03 05:59:52;;;;;;;0.00;0.00;;;19.20;86.20;;;;;;4952622;28;20031;-80
2023/09/03 06:02:18;;;;;;;0.00;0.00;;;19.20;86.20;;;;;;4949285;29;20509;-79
2023/09/03 06:04:44;;;;;;;0.00;0.00;;;19.20;86.30;;;;;;4923210;29;20027;-80
2023/09/03 06:07:09;;;;;;;0.00;0.00;;;19.20;86.30;;;;;;4923356;29;20032;-80
2023/09/03 06:09:37;;;;;;;0.00;0.00;;;19.30;86.20;;;;;;4940620;29;20048;-80
2023/09/03 06:12:03;;;;;;;0.00;0.00;;;19.30;85.90;;;;;;4939987;29;20039;-80
2023/09/03 06:14:29;;;;;;;0.10;0.10;;;19.40;85.90;;;;;;4930694;29;20027;-80
2023/09/03 06:16:54;;;;;;;0.00;0.00;;;19.40;86.00;;;;;;4950657;28;20406;-79
2023/09/03 06:19:22;;;;;;;0.10;0.10;;;19.50;86.00;;;;;;4955537;29;20045;-78
2023/09/03 06:21:48;;;;;;;0.00;0.00;;;19.50;86.00;;;;;;4951638;29;20494;-78
2023/09/03 06:24:15;;;;;;;0.00;0.00;;;19.50;86.10;;;;;;4944533;29;20036;-78
2023/09/03 06:26:44;;;;;;;0.00;0.00;;;19.50;86.00;;;;;;4929749;29;20067;-79
2023/09/03 06:29:09;;;;;;;0.10;0.10;;;19.60;86.10;;;;;;4923001;29;20037;-78
2023/09/03 06:31:35;;;;;;;0.08;0.08;;;19.60;86.00;;;;;;4941024;29;20138;-79
2023/09/03 06:34:01;;;;;;;0.03;0.03;;;19.70;85.90;;;;;;4958652;29;20023;-79
2023/09/03 06:36:26;;;;;;;0.00;0.00;;;19.70;85.90;;;;;;4941285;29;20031;-79
2023/09/03 06:38:52;;;;;;;0.00;0.00;;;19.70;85.90;;;;;;4950385;29;20095;-79
2023/09/03 06:41:18;;;;;;;0.08;0.08;;;19.80;85.80;;;;;;4968116;28;20069;-79
2023/09/03 06:43:43;;;;;;;0.10;0.10;;;19.80;85.70;;;;;;4960272;28;20454;-78
2023/09/03 06:46:09;;;;;;;0.00;0.00;;;19.90;85.60;;;;;;4949933;29;20110;-78
2023/09/03 06:48:35;;;;;;;0.00;0.00;;;19.90;85.50;;;;;;4921979;29;20028;-78
2023/09/03 06:51:01;;;;;;;0.00;0.00;;;19.90;85.50;;;;;;4922256;29;20028;-79
2023/09/03 06:53:26;;;;;;;0.00;0.00;;;20.00;85.40;;;;;;4939011;29;20036;-86
2023/09/03 06:55:52;;;;;;;0.10;0.10;;;20.10;85.20;;;;;;4941861;29;20023;-82
2023/09/03 06:58:18;;;;;;;0.00;0.00;;;20.20;85.10;;;;;;4947554;29;20024;-79
2023/09/03 07:00:44;;;;;;;0.00;0.00;;;20.30;84.90;;;;;;4938882;29;20136;-78
2023/09/03 07:03:09;;;;;;;0.00;0.00;;;20.30;84.70;;;;;;4946785;29;20062;-80
2023/09/03 07:05:36;;;;;;;0.10;0.10;;;20.40;84.50;;;;;;4951030;29;20054;-76
2023/09/03 07:08:02;;;;;;;0.00;0.00;;;20.40;84.50;;;;;;4930353;29;20039;-77
2023/09/03 07:10:27;;;;;;;0.00;0.00;;;20.50;84.20;;;;;;4933512;29;20035;-78
2023/09/03 07:12:53;;;;;;;0.00;0.00;;;20.60;84.20;;;;;;4933553;29;20031;-77
2023/09/03 07:15:19;;;;;;;0.00;0.00;;;20.60;84.20;;;;;;4949255;29;20479;-76
2023/09/03 07:17:44;;;;;;;0.00;0.00;;;20.70;84.00;;;;;;4949613;29;20030;-76
2023/09/03 07:20:10;;;;;;;0.00;0.00;;;20.80;83.90;;;;;;4950685;29;20047;-77
2023/09/03 07:22:36;;;;;;;0.00;0.00;;;20.90;83.60;;;;;;4951426;29;20106;-77
2023/09/03 07:25:02;;;;;;;0.00;0.00;;;20.90;83.70;;;;;;4931005;29;20054;-77
2023/09/03 07:27:28;;;;;;;0.00;0.00;;;20.90;83.50;;;;;;4932136;29;20047;-78
2023/09/03 07:29:54;;;;;;;0.00;0.00;;;21.00;83.30;;;;;;4949697;29;20438;-79
2023/09/03 07:32:21;;;;;;;0.00;0.00;;;21.10;83.30;;;;;;4927552;29;20525;-77
2023/09/03 07:34:47;;;;;;;0.00;0.00;;;21.20;83.20;;;;;;4947474;29;20402;-75
2023/09/03 07:37:12;;;;;;;0.00;0.00;;;21.30;82.80;;;;;;4949141;29;20034;-74
2023/09/03 07:39:38;;;;;;;0.00;0.00;;;21.50;82.70;;;;;;4930244;28;20111;-77
2023/09/03 07:42:04;;;;;;;0.00;0.00;;;21.70;82.20;;;;;;4947959;29;20668;-78
2023/09/03 07:44:30;;;;;;;0.00;0.00;;;21.70;82.20;;;;;;4948111;29;20043;-77
2023/09/03 07:46:56;;;;;;;0.00;0.00;;;21.70;81.60;;;;;;4948721;29;20490;-78
2023/09/03 07:49:21;;;;;;;0.00;0.00;;;21.80;81.70;;;;;;4929721;29;20027;-78
2023/09/03 07:51:47;;;;;;;0.00;0.00;;;22.00;81.50;;;;;;4947999;29;20066;-77
2023/09/03 07:54:15;;;;;;;0.00;0.00;;;22.00;81.20;;;;;;4947561;29;20027;-77
2023/09/03 07:56:41;;;;;;;0.00;0.00;;;22.10;81.00;;;;;;4929930;29;20019;-75
2023/09/03 07:59:07;;;;;;;0.00;0.00;;;22.10;80.80;;;;;;4931312;29;20039;-75
2023/09/03 08:01:32;;;;;;;0.00;0.00;;;22.10;80.70;;;;;;4948133;28;20027;-75
2023/09/03 08:03:58;;;;;;;0.03;0.03;;;22.00;80.90;;;;;;4950124;28;20421;-75
2023/09/03 08:06:24;;;;;;;0.10;0.10;;;22.20;80.70;;;;;;4947874;28;20035;-75
2023/09/03 08:08:54;;;;;;;0.00;0.00;;;22.70;79.80;;;;;;4922930;29;20126;-76
2023/09/03 08:11:21;;;;;;;0.00;0.00;;;23.40;78.30;;;;;;4941309;29;20030;-75
2023/09/03 08:13:51;;;;;;;0.00;0.00;;;24.00;76.70;;;;;;4927224;29;20035;-76
2023/09/03 08:16:17;;;;;;;0.00;0.00;;;24.30;75.50;;;;;;4950080;28;20038;-75
2023/09/03 08:18:43;;;;;;;0.00;0.00;;;24.80;73.80;;;;;;4949347;28;20106;-78
2023/09/03 08:21:08;;;;;;;0.00;0.00;;;25.00;72.80;;;;;;4950109;28;20029;-78
2023/09/03 08:23:34;;;;;;;0.00;0.00;;;25.70;71.30;;;;;;4944111;28;20027;-79
2023/09/03 08:26:00;;;;;;;0.00;0.00;;;26.10;69.90;;;;;;4959171;28;20039;-78
2023/09/03 08:28:25;;;;;;;0.00;0.00;;;26.30;69.60;;;;;;4967781;28;20035;-77
2023/09/03 08:30:51;;;;;;;0.00;0.00;;;26.00;69.50;;;;;;4965505;28;20143;-77
2023/09/03 08:33:17;;;;;;;0.00;0.00;;;25.90;69.80;;;;;;4955606;28;20976;-78
2023/09/03 08:35:44;;;;;;;0.00;0.00;;;25.80;70.00;;;;;;4956117;28;20019;-78
2023/09/03 08:38:09;;;;;;;0.00;0.00;;;25.80;70.20;;;;;;4955661;28;20391;-78
2023/09/03 08:40:36;;;;;;;0.00;0.00;;;25.90;70.00;;;;;;4950872;28;20035;-78
2023/09/03 08:43:07;;;;;;;0.00;0.00;;;26.30;68.80;;;;;;4931723;29;20043;-78
2023/09/03 08:45:36;;;;;;;0.30;0.30;;;27.10;67.50;;;;;;4934404;28;20039;-79
2023/09/03 08:48:02;;;;;;;0.20;0.20;;;27.70;65.80;;;;;;4955603;28;20031;-79
2023/09/03 08:50:30;;;;;;;0.20;0.20;;;28.20;64.70;;;;;;4951033;28;20042;-79
2023/09/03 08:52:57;;;;;;;0.00;0.00;;;28.30;63.90;;;;;;4954165;28;20127;-79
2023/09/03 08:55:24;;;;;;;0.00;0.00;;;27.80;64.10;;;;;;4949908;28;20031;-79
2023/09/03 08:57:54;;;;;;;0.00;0.00;;;27.10;66.10;;;;;;4952936;28;20123;-83
2023/09/03 09:00:20;;;;;;;0.00;0.00;;;26.50;68.00;;;;;;4931832;29;20027;-83
2023/09/03 09:02:48;;;;;;;0.10;0.10;;;25.90;69.50;;;;;;4937282;29;20036;-83
2023/09/03 09:05:15;;;;;;;0.00;0.00;;;25.70;71.40;;;;;;4953296;28;20375;-82
2023/09/03 09:07:41;;;;;;;0.00;0.00;;;25.60;71.30;;;;;;4950760;28;20030;-82
2023/09/03 09:10:09;;;;;;;0.00;0.00;;;25.60;71.50;;;;;;4938696;29;20031;-82
2023/09/03 09:12:52;;;;;;;0.00;0.00;;;25.60;71.10;;;;;;4946532;28;20031;-81
2023/09/03 09:15:17;;;;;;;0.00;0.00;;;25.30;71.40;;;;;;4937434;29;20035;-82
2023/09/03 09:17:43;;;;;;;0.00;0.00;;;25.20;72.80;;;;;;4949495;28;20043;-82
2023/09/03 09:20:15;;;;;;;0.08;0.08;;;25.10;73.60;;;;;;4951856;28;20032;-82
2023/09/03 09:22:45;;;;;;;0.00;0.00;;;24.90;73.20;;;;;;4943388;28;20056;-82
2023/09/03 09:25:25;;;;;;;0.00;0.00;;;24.90;73.30;;;;;;4936575;29;20027;-82
2023/09/03 09:27:55;;;;;;;0.00;0.00;;;25.10;73.70;;;;;;4959170;28;20030;-82
2023/09/03 09:30:24;;;;;;;0.10;0.10;;;25.30;73.20;;;;;;4937767;29;20123;-83
2023/09/03 09:33:03;;;;;;;0.00;0.00;;;25.30;72.60;;;;;;4938973;28;20789;-83
2023/09/03 09:35:29;;;;;;;0.00;0.00;;;25.30;72.80;;;;;;4954529;28;20027;-82
2023/09/03 09:38:02;;;;;;;0.00;0.00;;;25.20;73.30;;;;;;4935402;29;20027;-89
2023/09/03 09:40:31;;;;;;;0.00;0.00;;;25.20;73.80;;;;;;4957419;28;20082;-82
2023/09/03 09:42:59;;;;;;;0.00;0.00;;;25.10;74.00;;;;;;4953611;28;20039;-83
2023/09/03 09:45:25;;;;;;;0.00;0.00;;;25.10;73.80;;;;;;4953105;28;20031;-81
2023/09/03 09:48:03;;;;;;;0.00;0.00;;;25.00;73.50;;;;;;4928526;29;20043;-82
2023/09/03 09:50:37;;;;;;;0.00;0.00;;;25.10;74.40;;;;;;4953139;28;20805;-83
2023/09/03 09:53:04;;;;;;;0.10;0.00;;;25.10;74.20;;;;;;4937855;29;20035;-83
2023/09/03 09:55:32;;;;;;;0.00;0.00;;;25.10;74.70;;;;;;4938780;29;20035;-88
2023/09/03 09:57:58;;;;;;;0.00;0.00;;;25.20;73.90;;;;;;4942267;28;20027;-81
2023/09/03 10:00:37;;;;;;;0.00;0.00;;;25.20;74.50;;;;;;4932469;29;20137;-84
2023/09/03 10:03:05;;;;;;;0.00;0.00;;;25.30;74.20;;;;;;4951850;28;20042;-81
2023/09/03 10:05:31;;;;;;;0.00;0.00;;;25.30;74.90;;;;;;4941242;29;20035;-83
2023/09/03 10:07:58;;;;;;;0.00;0.00;;;25.30;74.60;;;;;;4949064;28;20102;-82
2023/09/03 10:10:23;;;;;;;0.00;0.00;;;25.40;74.50;;;;;;4956371;28;20035;-83
2023/09/03 10:12:49;;;;;;;0.00;0.00;;;25.40;74.10;;;;;;4953885;28;20102;-80
2023/09/03 10:15:15;;;;;;;0.00;0.00;;;25.50;74.80;;;;;;4939120;28;20027;-85
2023/09/03 10:17:41;;;;;;;0.10;0.10;;;25.60;74.90;;;;;;4952701;28;20023;-89
2023/09/03 10:20:14;;;;;;;0.00;0.00;;;25.80;74.50;;;;;;4935102;29;20035;-80
2023/09/03 10:22:41;;;;;;;0.00;0.00;;;25.90;74.00;;;;;;4932133;29;20023;-81
2023/09/03 10:25:12;;;;;;;0.00;0.00;;;26.00;73.30;;;;;;4936804;28;20053;-80
2023/09/03 10:27:43;;;;;;;0.00;0.00;;;26.10;73.40;;;;;;4937611;29;20020;-88
2023/09/03 10:30:14;;;;;;;0.20;0.05;;;26.20;73.00;;;;;;4930347;29;20507;-84
2023/09/03 10:32:42;;;;;;;0.00;0.00;;;26.20;72.60;;;;;;4934177;29;20038;-90
2023/09/03 10:35:09;;;;;;;0.00;0.00;;;26.30;73.80;;;;;;4958159;28;20119;-85
2023/09/03 10:37:39;;;;;;;0.00;0.00;;;26.30;73.00;;;;;;4941594;29;20090;-86
2023/09/03 10:40:26;;;;;;;0.00;0.00;;;26.30;73.10;;;;;;4930126;29;20090;-77
2023/09/03 10:42:53;;;;;;;0.00;0.00;;;26.40;72.30;;;;;;4951788;28;20015;-77
2023/09/03 10:45:22;;;;;;;0.00;0.00;;;26.40;71.30;;;;;;4953890;28;20023;-79
2023/09/03 10:48:16;;;;;;;0.00;0.00;;;26.50;71.80;;;;;;4957441;28;20023;-79
2023/09/03 10:50:48;;;;;;;0.00;0.00;;;26.50;71.80;;;;;;4929643;29;20047;-79
2023/09/03 10:53:35;;;;;;;0.00;0.00;;;26.60;72.40;;;;;;4921607;29;20015;-78
2023/09/03 10:56:08;;;;;;;0.00;0.00;;;26.70;71.40;;;;;;4933792;29;20040;-81
2023/09/03 10:58:34;;;;;;;0.10;0.10;;;26.80;71.90;;;;;;4937047;29;20028;-80
2023/09/03 11:01:22;;;;;;;0.00;0.00;;;26.80;71.80;;;;;;4924855;29;20046;-78
2023/09/03 11:03:49;;;;;;;0.00;0.00;;;26.80;72.00;;;;;;4921620;29;20024;-79
2023/09/03 11:06:23;;;;;;;0.00;0.00;;;26.90;71.20;;;;;;4955060;28;20064;-79
2023/09/03 11:09:12;;;;;;;0.00;0.00;;;27.00;71.60;;;;;;4957515;28;20102;-79
2023/09/03 11:11:38;;;;;;;0.00;0.00;;;27.00;71.20;;;;;;4955232;28;20031;-81
2023/09/03 11:14:06;;;;;;;0.00;0.00;;;27.20;71.50;;;;;;4943809;28;20023;-80
2023/09/03 11:16:34;;;;;;;0.00;0.00;;;27.20;70.60;;;;;;4957242;28;20087;-78
2023/09/03 11:19:03;;;;;;;0.10;0.10;;;27.30;70.10;;;;;;4939691;29;20023;-83
2023/09/03 11:21:29;;;;;;;0.00;0.00;;;27.30;70.90;;;;;;4939368;28;20039;-82
2023/09/03 11:24:18;;;;;;;0.00;0.00;;;27.30;69.10;;;;;;4954316;28;20110;-77
2023/09/03 11:26:44;;;;;;;0.00;0.00;;;27.40;70.60;;;;;;4947307;28;20035;-78
2023/09/03 11:29:21;;;;;;;0.08;0.08;;;27.50;69.50;;;;;;4951293;28;20038;-78
2023/09/03 11:31:48;;;;;;;0.00;0.00;;;27.50;69.30;;;;;;4945223;28;20051;-78
2023/09/03 11:34:20;;;;;;;0.00;0.00;;;27.60;69.30;;;;;;4932900;29;20045;-83
2023/09/03 11:36:46;;;;;;;0.00;0.00;;;27.70;69.00;;;;;;4948011;28;20126;-83
2023/09/03 11:39:16;;;;;;;0.00;0.00;;;27.70;69.70;;;;;;4937438;29;20051;-89
2023/09/03 11:41:45;;;;;;;0.00;0.00;;;27.80;68.90;;;;;;4937674;28;20035;-90
2023/09/03 11:44:19;;;;;;;0.00;0.00;;;27.90;69.30;;;;;;4939001;29;20029;-86
2023/09/03 11:47:02;;;;;;;0.08;0.08;;;27.90;68.40;;;;;;4957274;28;20043;-84
2023/09/03 11:49:28;;;;;;;0.00;0.00;;;28.00;69.10;;;;;;4928812;29;20474;-84
2023/09/03 11:52:14;;;;;;;0.00;0.00;;;28.10;69.00;;;;;;4939032;28;20182;-89
2023/09/03 11:54:41;;;;;;;0.00;0.00;;;28.10;67.60;;;;;;4956836;28;20117;-88
2023/09/03 11:57:09;;;;;;;0.00;0.00;;;28.20;68.50;;;;;;4949583;28;20492;-90
2023/09/03 11:59:35;;;;;;;0.00;0.00;;;28.20;67.30;;;;;;4948922;28;20023;-88
2023/09/03 12:02:02;;;;;;;0.00;0.00;;;28.30;66.50;;;;;;4965550;28;20042;-88
2023/09/03 12:04:32;;;;;;;0.08;0.08;;;28.30;66.30;;;;;;4943315;28;20378;-90
2023/09/03 12:06:58;;;;;;;0.00;0.00;;;28.40;65.90;;;;;;4947972;28;20398;-88
2023/09/03 12:09:26;;;;;;;0.00;0.00;;;28.50;66.10;;;;;;4960033;28;20034;-88
2023/09/03 12:11:52;;;;;;;0.00;0.00;;;28.50;64.30;;;;;;4965198;28;20022;-87
2023/09/03 12:14:31;;;;;;;0.00;0.00;;;28.60;64.90;;;;;;4949131;28;20575;-88
2023/09/03 12:16:57;;;;;;;0.00;0.00;;;28.70;64.90;;;;;;4965378;28;20579;-88
2023/09/03 12:19:23;;;;;;;0.00;0.00;;;28.70;64.90;;;;;;4962140;28;20019;-88
2023/09/03 12:21:52;;;;;;;0.00;0.00;;;28.70;64.80;;;;;;4948988;28;20042;-89
2023/09/03 12:24:27;;;;;;;0.00;0.00;;;28.80;63.60;;;;;;4948972;28;20119;-89
2023/09/03 12:27:03;;;;;;;0.00;0.00;;;28.80;63.30;;;;;;4935454;29;20038;-88
2023/09/03 12:29:36;;;;;;;0.00;0.00;;;28.90;63.40;;;;;;4937533;29;20070;-87
2023/09/03 12:32:03;;;;;;;0.00;0.00;;;28.90;63.40;;;;;;4935685;29;20252;-88
2023/09/03 12:34:33;;;;;;;0.00;0.00;;;28.90;63.10;;;;;;4936267;29;20103;-86
2023/09/03 12:36:59;;;;;;;0.00;0.00;;;28.90;63.20;;;;;;4938724;29;20031;-87
2023/09/03 12:39:31;;;;;;;0.00;0.00;;;29.00;63.00;;;;;;4920578;29;20126;-88
2023/09/03 12:41:58;;;;;;;0.00;0.00;;;29.10;62.60;;;;;;4953264;29;20036;-86
2023/09/03 12:44:24;;;;;;;0.00;0.00;;;29.20;61.90;;;;;;4923665;29;20078;-86
2023/09/03 12:46:52;;;;;;;0.00;0.00;;;29.20;61.10;;;;;;4938597;29;20028;-89
2023/09/03 12:49:18;;;;;;;0.00;0.00;;;29.20;62.50;;;;;;4938416;29;20034;-88
2023/09/03 12:51:44;;;;;;;0.00;0.00;;;29.30;61.40;;;;;;4921523;29;20055;-87
2023/09/03 12:54:10;;;;;;;0.00;0.00;;;29.30;61.30;;;;;;4937243;29;20431;-87
2023/09/03 12:56:35;;;;;;;0.00;0.00;;;29.30;60.80;;;;;;4921189;29;20485;-84
2023/09/03 12:59:05;;;;;;;0.00;0.00;;;29.40;60.50;;;;;;4921286;29;20047;-84
2023/09/03 13:01:37;;;;;;;0.00;0.00;;;29.40;59.70;;;;;;4941213;29;20032;-86
2023/09/03 13:04:04;;;;;;;0.00;0.00;;;29.40;60.30;;;;;;4945992;28;20114;-86
2023/09/03 13:06:30;;;;;;;0.00;0.00;;;29.50;60.50;;;;;;4948329;28;20031;-87
2023/09/03 13:08:56;;;;;;;0.00;0.00;;;29.60;60.40;;;;;;4951770;29;20090;-86
2023/09/03 13:11:22;;;;;;;0.00;0.00;;;29.60;60.10;;;;;;4941641;29;20078;-86
2023/09/03 13:13:51;;;;;;;0.00;0.00;;;29.60;59.60;;;;;;4957565;29;20031;-86
2023/09/03 13:16:20;;;;;;;0.00;0.00;;;29.60;59.50;;;;;;4924433;29;20024;-86
2023/09/03 13:18:46;;;;;;;0.00;0.00;;;29.60;57.60;;;;;;4940583;29;20114;-90
2023/09/03 13:21:12;;;;;;;0.00;0.00;;;29.70;57.90;;;;;;4947424;28;20122;-87
2023/09/03 13:23:39;;;;;;;0.05;0.00;;;29.80;57.30;;;;;;4968516;28;20041;-85
2023/09/03 13:26:04;;;;;;;0.00;0.00;;;29.80;57.00;;;;;;4968056;28;20031;-86
2023/09/03 13:28:33;;;;;;;0.00;0.00;;;29.80;56.00;;;;;;4964288;28;20046;-86
2023/09/03 13:31:02;;;;;;;0.00;0.00;;;29.90;56.10;;;;;;4943528;29;20052;-85
2023/09/03 13:33:28;;;;;;;0.00;0.00;;;29.90;55.80;;;;;;4943720;29;20127;-85
2023/09/03 13:35:56;;;;;;;0.00;0.00;;;29.90;57.00;;;;;;4955741;28;20019;-87
2023/09/03 13:38:22;;;;;;;0.00;0.00;;;29.90;56.60;;;;;;4953540;29;20027;-87
2023/09/03 13:40:52;;;;;;;0.00;0.00;;;30.00;57.00;;;;;;4944507;28;20109;-87
2023/09/03 13:43:19;;;;;;;0.03;0.03;;;30.00;55.60;;;;;;4955658;29;20059;-84
2023/09/03 13:45:54;;;;;;;0.00;0.00;;;30.10;55.40;;;;;;4955067;28;20031;-86
2023/09/03 13:48:20;;;;;;;0.00;0.00;;;30.10;55.50;;;;;;4948356;29;20557;-84
2023/09/03 13:50:46;;;;;;;0.00;0.00;;;30.20;56.90;;;;;;4941852;29;20055;-85
2023/09/03 13:53:12;;;;;;;0.00;0.00;;;30.20;56.60;;;;;;4934244;29;20035;-86
2023/09/03 13:55:38;;;;;;;0.00;0.00;;;30.20;55.40;;;;;;4936470;29;20027;-82
2023/09/03 13:58:04;;;;;;;0.00;0.00;;;30.20;55.90;;;;;;4938169;29;20036;-84
2023/09/03 14:00:29;;;;;;;0.00;0.00;;;30.20;54.30;;;;;;4946400;29;20031;-90
2023/09/03 14:02:55;;;;;;;0.17;0.00;;;30.20;54.90;;;;;;4934821;28;20036;-84
2023/09/03 14:05:21;;;;;;;0.00;0.00;;;30.20;55.80;;;;;;4959020;28;20035;-84
2023/09/03 14:07:47;;;;;;;0.00;0.00;;;30.20;55.20;;;;;;4942284;29;20038;-83
2023/09/03 14:10:13;;;;;;;0.00;0.00;;;30.10;55.90;;;;;;4941209;29;20082;-83
2023/09/03 14:12:38;;;;;;;0.00;0.00;;;30.20;55.60;;;;;;4959304;29;20494;-82
2023/09/03 14:15:06;;;;;;;0.00;0.00;;;30.20;55.90;;;;;;4941825;29;20078;-83
2023/09/03 14:17:32;;;;;;;0.00;0.00;;;30.20;56.20;;;;;;4937479;28;20059;-82
2023/09/03 14:19:57;;;;;;;0.00;0.00;;;30.20;56.10;;;;;;4953924;28;20066;-85
2023/09/03 14:22:23;;;;;;;0.00;0.00;;;30.30;56.00;;;;;;4942319;29;20067;-90
2023/09/03 14:24:49;;;;;;;0.00;0.00;;;30.30;55.70;;;;;;4953212;28;20023;-81
2023/09/03 14:27:15;;;;;;;0.00;0.00;;;30.40;56.00;;;;;;4936399;29;20489;-89
2023/09/03 14:29:40;;;;;;;0.00;0.00;;;30.30;55.10;;;;;;4934766;28;20029;-86
2023/09/03 14:32:06;;;;;;;0.00;0.00;;;30.30;56.00;;;;;;4954585;28;20052;-86
2023/09/03 14:34:32;;;;;;;0.00;0.00;;;30.30;55.50;;;;;;4941445;29;20030;-86
2023/09/03 14:36:58;;;;;;;0.00;0.00;;;30.40;54.90;;;;;;4938147;29;20042;-88
2023/09/03 14:39:23;;;;;;;0.00;0.00;;;30.30;55.90;;;;;;4946446;29;20865;-87
2023/09/03 14:41:49;;;;;;;0.00;0.00;;;30.40;54.20;;;;;;4971487;28;20465;-88
2023/09/03 14:44:15;;;;;;;0.00;0.00;;;30.40;52.20;;;;;;4941096;29;20066;-84
2023/09/03 14:46:41;;;;;;;0.00;0.00;;;30.40;52.50;;;;;;4931520;29;20059;-86
2023/09/03 14:49:10;;;;;;;0.00;0.00;;;30.40;53.80;;;;;;4938278;28;20031;-86
2023/09/03 14:51:37;;;;;;;0.00;0.00;;;30.40;54.60;;;;;;4954200;29;20047;-84
2023/09/03 14:54:06;;;;;;;0.00;0.00;;;30.40;54.10;;;;;;4939329;29;20454;-86
2023/09/03 14:56:31;;;;;;;0.00;0.00;;;30.50;53.70;;;;;;4922835;29;20034;-90
2023/09/03 14:59:00;;;;;;;0.00;0.00;;;30.50;53.60;;;;;;4922883;29;20059;-87
2023/09/03 15:01:26;;;;;;;0.00;0.00;;;30.50;53.20;;;;;;4945581;29;20089;-90
2023/09/03 15:03:52;;;;;;;0.00;0.00;;;30.40;51.90;;;;;;4933595;29;20027;-91
2023/09/03 15:06:18;;;;;;;0.00;0.00;;;30.40;53.70;;;;;;4938993;29;20045;-89
2023/09/03 15:08:45;;;;;;;0.00;0.00;;;30.40;52.60;;;;;;4952730;29;20015;-89
2023/09/03 15:11:15;;;;;;;0.00;0.00;;;30.40;52.50;;;;;;4946445;29;20050;-86
2023/09/03 15:13:42;;;;;;;0.00;0.00;;;30.40;52.90;;;;;;4928930;29;20019;-87
2023/09/03 15:16:08;;;;;;;0.00;0.00;;;30.40;52.40;;;;;;4929707;29;20526;-86
2023/09/03 15:18:34;;;;;;;0.00;0.00;;;30.40;52.90;;;;;;4947003;29;20015;-86
2023/09/03 15:21:00;;;;;;;0.00;0.00;;;30.40;52.40;;;;;;4929421;29;20027;-86
2023/09/03 15:23:26;;;;;;;0.00;0.00;;;30.40;52.30;;;;;;4933929;29;20046;-86
2023/09/03 15:25:52;;;;;;;0.15;0.00;;;30.40;52.60;;;;;;4958550;29;20042;-86
2023/09/03 15:28:19;;;;;;;0.10;0.10;;;30.40;53.10;;;;;;4942602;29;20503;-87
2023/09/03 15:30:45;;;;;;;0.00;0.00;;;30.50;52.60;;;;;;4926349;29;20059;-86
2023/09/03 15:33:11;;;;;;;0.08;0.08;;;30.40;53.20;;;;;;4936052;29;20531;-86
2023/09/03 15:35:40;;;;;;;0.00;0.00;;;30.40;53.00;;;;;;4937092;29;20046;-86
2023/09/03 15:38:06;;;;;;;0.00;0.00;;;30.40;51.90;;;;;;4935053;29;20036;-86
2023/09/03 15:40:33;;;;;;;0.00;0.00;;;30.40;52.20;;;;;;4929931;29;20036;-86
2023/09/03 15:42:58;;;;;;;0.00;0.00;;;30.40;52.40;;;;;;4936946;29;20027;-85
2023/09/03 15:45:24;;;;;;;0.00;0.00;;;30.40;52.30;;;;;;4921766;29;20100;-86
2023/09/03 15:47:50;;;;;;;0.00;0.00;;;30.40;52.60;;;;;;4934206;29;20100;-86
2023/09/03 15:50:16;;;;;;;0.00;0.00;;;30.40;53.00;;;;;;4936488;29;20122;-86
2023/09/03 15:52:44;;;;;;;0.00;0.00;;;30.30;53.20;;;;;;4927585;29;20067;-86
2023/09/03 15:55:10;;;;;;;0.00;0.00;;;30.30;52.90;;;;;;4934106;29;20515;-86
2023/09/03 15:57:36;;;;;;;0.00;0.00;;;30.30;52.20;;;;;;4919883;29;20036;-86
2023/09/03 16:00:02;;;;;;;0.00;0.00;;;30.30;51.50;;;;;;4918878;29;20107;-85
2023/09/03 16:02:28;;;;;;;0.00;0.00;;;30.30;52.20;;;;;;4926614;29;20073;-86
2023/09/03 16:04:53;;;;;;;0.00;0.00;;;30.30;52.60;;;;;;4930122;29;20503;-85
2023/09/03 16:07:19;;;;;;;0.00;0.00;;;30.30;52.70;;;;;;4919333;29;20103;-86
2023/09/03 16:09:44;;;;;;;0.00;0.00;;;30.20;51.70;;;;;;4937849;29;20059;-86
2023/09/03 16:12:10;;;;;;;0.00;0.00;;;30.20;52.10;;;;;;4924805;29;20040;-86
2023/09/03 16:14:36;;;;;;;0.00;0.00;;;30.10;52.30;;;;;;4934351;29;20063;-85
2023/09/03 16:17:02;;;;;;;0.00;0.00;;;30.10;52.60;;;;;;4947992;29;20038;-86
2023/09/03 16:19:28;;;;;;;0.00;0.00;;;30.10;53.80;;;;;;4937958;29;20024;-86
2023/09/03 16:21:54;;;;;;;0.00;0.00;;;30.10;53.60;;;;;;4922789;29;20090;-87
2023/09/03 16:24:19;;;;;;;0.00;0.00;;;30.00;53.30;;;;;;4923481;29;20028;-84
2023/09/03 16:26:45;;;;;;;0.00;0.00;;;30.00;53.40;;;;;;4934963;29;20032;-87
2023/09/03 16:29:11;;;;;;;0.00;0.00;;;30.00;53.70;;;;;;4928179;29;20056;-86
2023/09/03 16:31:36;;;;;;;0.00;0.00;;;30.00;53.40;;;;;;4933673;29;20050;-86
2023/09/03 16:34:04;;;;;;;0.00;0.00;;;30.00;53.00;;;;;;4931184;29;20433;-88
2023/09/03 16:36:33;;;;;;;0.00;0.00;;;29.90;51.30;;;;;;4957615;29;20031;-82
2023/09/03 16:38:59;;;;;;;0.00;0.00;;;29.80;51.70;;;;;;4933113;28;20050;-85
2023/09/03 16:41:25;;;;;;;0.22;0.00;;;29.80;51.60;;;;;;4934988;28;20070;-77
2023/09/03 16:43:51;;;;;;;0.00;0.00;;;29.70;53.10;;;;;;4944361;29;20394;-79
2023/09/03 16:46:18;;;;;;;0.00;0.00;;;29.70;52.70;;;;;;4951461;29;20485;-77
2023/09/03 16:48:45;;;;;;;0.00;0.00;;;29.60;53.30;;;;;;4960013;29;20430;-77
2023/09/03 16:51:10;;;;;;;0.00;0.00;;;29.60;52.50;;;;;;4954676;28;20035;-76
2023/09/03 16:53:36;;;;;;;0.00;0.00;;;29.50;53.10;;;;;;4943460;29;20118;-78
2023/09/03 16:56:02;;;;;;;0.00;0.00;;;29.50;53.30;;;;;;4951990;29;20111;-77
2023/09/03 16:58:27;;;;;;;0.00;0.00;;;29.40;53.50;;;;;;4947392;28;20023;-76
2023/09/03 17:00:55;;;;;;;0.25;0.10;;;29.40;54.50;;;;;;4958603;28;20129;-76
2023/09/03 17:03:22;;;;;;;0.00;0.00;;;29.30;54.20;;;;;;4944809;28;20174;-74
2023/09/03 17:05:48;;;;;;;0.00;0.00;;;29.30;53.90;;;;;;4957797;28;20157;-76
2023/09/03 17:08:13;;;;;;;0.00;0.00;;;29.20;54.60;;;;;;4958413;28;20054;-76
2023/09/03 17:10:39;;;;;;;0.15;0.00;;;29.20;54.60;;;;;;4944461;29;20063;-75
2023/09/03 17:13:05;;;;;;;0.00;0.00;;;29.10;54.70;;;;;;4945028;29;20028;-75
2023/09/03 17:15:42;;;;;;;0.00;0.00;;;29.10;54.60;;;;;;4956079;29;20033;-76
2023/09/03 17:18:09;;;;;;;0.00;0.00;;;29.00;54.30;;;;;;4947368;29;20561;-76
2023/09/03 17:20:40;;;;;;;0.00;0.00;;;28.90;54.80;;;;;;4941754;29;20031;-76